Main page


Airports :

Valley, Wales

RAF Valley

latitude: 53-15N, longitude: 004-32W, elevation: 1 m

Current weather observation

The report was made 57 minutes ago, at 16:50 UTC
Wind 7 kt from the North/Northwest
Temperature 6°C
Humidity 70%
Pressure 1034 hPa
Visibility 10 km or more
Few clouds at a height of 3500 ft
Scattered clouds at a height of 30000 ft

METAR: EGOV 201650Z 33007KT 9999 FEW035 SCT300 06/01 Q1034 BLACKBLU NOSIG

Time: 17:47 (17:47 UTC)


The report was made 4 hours and 30 minutes ago, at 13:17 UTC
Forecast valid from 20 at 15 UTC to 20 at 20 UTC
Wind 8 kt from the West/Northwest
Visibility 10 km or more
Few clouds at a height of 3000 ft

TAF: EGOV 201317Z 2015/2020 30008KT 9999 FEW030

Weather observations and forecasts of more than 4000 airports (METAR and TAF reports).

The available stations are represented by yellow and red dots on the map.

Hover mouse over dot to see the name of the station.

Then click to see weather observations and forecasts.

To change the map : click on the green buttons with a black cross to zoom in, on the green button with a dash to zoom out, or on the green arrows for adjacent maps.